Date,TemperatureHighF,TemperatureAvgF,TemperatureLowF,DewpointHighF,DewpointAvgF,DewpointLowF,HumidityHigh,HumidityAvg,HumidityLow,PressureMaxIn,PressureMinIn,WindSpeedMaxMPH,WindSpeedAvgMPH,GustSpeedMaxMPH,PrecipitationSumIn
2013-7-1,81,70,63,72,67,63,100,91,66,29.95,29.78,10,0,10,1.65
2013-7-2,82,70,64,72,68,64,100,93,65,30.12,29.94,9,0,9,0.10
2013-7-3,77,68,62,74,68,62,100,98,84,30.21,30.08,7,0,7,3.59
2013-7-4,72,66,62,72,66,62,100,100,99,30.22,30.14,11,0,11,2.49
2013-7-5,82,70,65,73,68,65,100,95,66,30.24,30.16,7,0,7,0.54
2013-7-6,79,70,65,74,69,65,100,96,75,30.20,30.09,6,0,6,0.89
2013-7-7,80,72,68,74,70,68,100,95,79,30.15,30.06,6,0,6,0.37
2013-7-8,82,73,66,76,70,66,100,93,68,30.18,30.09,8,1,8,0.33
2013-7-9,85,74,67,78,71,67,100,93,66,30.17,30.04,5,0,5,0.74
2013-7-10,84,73,68,78,71,68,100,95,71,30.12,29.93,6,0,6,0.46
2013-7-11,80,72,67,75,70,67,100,96,78,29.96,29.86,4,0,4,1.04
2013-7-12,81,70,63,74,68,63,100,94,68,30.00,29.86,8,0,9,0.39
2013-7-13,74,68,63,70,66,63,100,95,83,30.10,29.99,9,2,9,0.11
2013-7-14,72,69,66,71,69,66,100,99,91,30.27,30.09,10,0,10,0.70
2013-7-15,82,71,64,74,69,64,100,92,70,30.33,30.25,7,1,7,0.04
2013-7-16,88,75,67,76,71,67,100,89,54,30.33,30.22,7,0,7,0.01
2013-7-17,88,73,67,76,70,67,100,92,60,30.27,30.14,13,1,13,0.38
2013-7-18,85,74,66,76,71,66,100,90,64,30.20,30.06,4,0,4,0.00
2013-7-19,88,75,66,76,71,66,100,87,56,30.12,29.97,9,0,9,0.00
2013-7-20,83,72,68,76,71,67,100,95,69,30.03,29.92,9,0,9,1.21
2013-7-21,85,71,67,76,69,67,100,94,66,30.01,29.93,11,1,11,0.72
2013-7-22,83,72,65,76,70,65,100,92,70,30.00,29.83,4,1,9,0.13
2013-7-23,84,72,62,75,69,62,100,90,61,29.89,29.77,5,0,6,0.01
2013-7-24,84,68,64,74,67,64,100,97,62,29.87,29.78,5,0,6,0.08
2013-7-25,85,69,62,74,66,62,100,92,62,30.04,29.86,8,1,8,0.90
2013-7-26,83,70,62,73,67,62,100,92,69,30.10,30.00,5,0,5,0.35
2013-7-27,79,71,66,73,69,66,100,93,74,30.04,29.87,6,0,6,0.38
2013-7-28,83,71,64,73,68,64,100,89,64,30.02,29.90,8,0,8,0.01
2013-7-29,83,69,61,71,65,61,100,88,52,30.18,30.02,8,0,8,0.00
2013-7-30,82,68,57,73,65,57,100,90,63,30.24,30.12,5,0,5,1.64
2013-7-31,76,69,66,72,68,66,100,98,82,30.18,29.95,4,0,7,0.43